Time;durP1;ratioP1;P1;durP2;ratioP2;P2;SDS_P1;SDS_P2;PMS_P1;PMS_P2;Temp;Humidity;BMP_temperature;BMP_pressure;BME280_temperature;BME280_humidity;BME280_pressure;Samples;Min_cycle;Max_cycle;Signal;HPM_P1;HPM_P2
2022/03/30 00:00:26;;;;;;;24.60;13.68;;;384.40;1280.00;;;;;;5008077;28;20022;-81
2022/03/30 00:02:52;;;;;;;25.95;13.75;;;384.40;1280.00;;;;;;5004896;28;20045;-78
2022/03/30 00:05:18;;;;;;;30.98;13.60;;;384.40;1280.00;;;;;;5016311;28;20499;-77
2022/03/30 00:07:44;;;;;;;30.67;15.55;;;384.60;1280.00;;;;;;5007038;28;20022;-78
2022/03/30 00:10:11;;;;;;;24.70;14.27;;;384.50;1254.40;;;;;;5004635;28;20382;-77
2022/03/30 00:12:36;;;;;;;42.35;17.70;;;384.60;1254.40;;;;;;5006463;28;20022;-81
2022/03/30 00:15:03;;;;;;;44.47;22.48;;;384.70;1280.00;;;;;;5006012;28;20044;-81
2022/03/30 00:17:29;;;;;;;36.90;18.50;;;384.60;1280.00;;;;;;5020443;28;20113;-77
2022/03/30 00:19:56;;;;;;;45.50;22.10;;;384.50;1280.00;;;;;;5005517;28;20022;-82
2022/03/30 00:22:22;;;;;;;54.80;22.63;;;384.50;1280.00;;;;;;5007236;28;20026;-78
2022/03/30 00:24:48;;;;;;;30.83;16.55;;;384.60;1305.60;;;;;;5005345;28;20471;-77
2022/03/30 00:27:13;;;;;;;25.48;14.98;;;384.50;1280.00;;;;;;5006408;28;20390;-78
2022/03/30 00:29:39;;;;;;;25.88;15.88;;;384.60;1280.00;;;;;;5005474;28;20018;-78
2022/03/30 00:32:06;;;;;;;30.38;15.68;;;384.50;1280.00;;;;;;5006240;28;20151;-78
2022/03/30 00:34:32;;;;;;;28.92;14.32;;;384.40;1331.20;;;;;;5005845;28;20049;-82
2022/03/30 00:36:58;;;;;;;30.38;15.07;;;384.40;1356.80;;;;;;5005205;28;20034;-77
2022/03/30 00:39:23;;;;;;;28.38;15.93;;;384.20;1356.80;;;;;;5005185;28;20494;-77
2022/03/30 00:41:49;;;;;;;67.13;26.27;;;384.20;1356.80;;;;;;5006807;28;20097;-77
2022/03/30 00:44:15;;;;;;;51.05;20.45;;;384.20;1356.80;;;;;;5005669;28;20425;-81
2022/03/30 00:46:44;;;;;;;57.92;22.00;;;384.10;1356.80;;;;;;5004527;28;20552;-77
2022/03/30 00:49:11;;;;;;;83.65;29.25;;;384.10;1382.40;;;;;;5003111;28;20026;-77
2022/03/30 00:51:37;;;;;;;66.88;23.63;;;384.20;1356.80;;;;;;5004569;28;20445;-79
2022/03/30 00:54:04;;;;;;;46.05;19.65;;;384.30;1356.80;;;;;;5007845;28;20045;-77
2022/03/30 00:56:32;;;;;;;33.42;15.60;;;384.30;1331.20;;;;;;5023812;28;20014;-77
2022/03/30 00:59:05;;;;;;;24.20;14.15;;;384.10;1331.20;;;;;;5005582;28;20025;-78
2022/03/30 01:01:31;;;;;;;31.70;14.32;;;384.00;1331.20;;;;;;5005087;28;20030;-77
2022/03/30 01:03:56;;;;;;;20.65;12.60;;;359.20;1356.80;;;;;;5006034;28;20088;-78
2022/03/30 01:06:22;;;;;;;20.38;12.18;;;384.00;1356.80;;;;;;5007060;28;20478;-77
2022/03/30 01:08:49;;;;;;;19.20;11.45;;;384.00;1356.80;;;;;;5011313;28;20018;-81
2022/03/30 01:11:16;;;;;;;20.60;12.15;;;359.20;1356.80;;;;;;5004998;28;20492;-77
2022/03/30 01:13:42;;;;;;;22.55;12.52;;;384.00;1356.80;;;;;;5004562;28;20026;-81
2022/03/30 01:16:08;;;;;;;20.23;12.40;;;359.30;1382.40;;;;;;5006131;28;20500;-78
2022/03/30 01:18:38;;;;;;;21.50;12.27;;;359.30;1382.40;;;;;;5022207;28;20113;-77
2022/03/30 01:21:05;;;;;;;27.73;13.20;;;359.20;1408.00;;;;;;5003354;28;20057;-78
2022/03/30 01:23:30;;;;;;;20.25;13.13;;;359.00;1459.20;;;;;;5004079;28;20038;-77
2022/03/30 01:25:56;;;;;;;21.38;12.68;;;359.00;1484.80;;;;;;5005629;28;20022;-77
2022/03/30 01:28:27;;;;;;;23.95;11.90;;;359.10;1510.40;;;;;;5004304;28;20018;-77
2022/03/30 01:33:46;;;;;;;29.55;14.98;;;358.80;1561.60;;;;;;5005031;28;20121;-78
2022/03/30 01:36:18;;;;;;;30.80;15.45;;;358.60;1587.20;;;;;;5002381;28;20033;-78
2022/03/30 01:38:44;;;;;;;31.98;15.00;;;358.60;1587.20;;;;;;5005431;28;20102;-77
2022/03/30 01:41:10;;;;;;;23.45;13.70;;;333.60;1612.80;;;;;;5003094;28;20489;-77
2022/03/30 01:43:36;;;;;;;28.05;14.00;;;333.20;1561.60;;;;;;5005269;28;20112;-77
2022/03/30 01:46:02;;;;;;;27.23;15.93;;;332.90;1561.60;;;;;;5004870;28;20500;-77
2022/03/30 01:48:28;;;;;;;29.02;14.90;;;308.00;1536.00;;;;;;5002549;28;20489;-76
2022/03/30 01:50:54;;;;;;;27.30;15.13;;;307.50;1561.60;;;;;;5003598;28;20029;-82
2022/03/30 01:53:19;;;;;;;23.58;13.77;;;282.40;1561.60;;;;;;5003508;28;20049;-77
2022/03/30 01:55:45;;;;;;;28.17;16.17;;;281.90;1561.60;;;;;;5005176;28;20500;-81
2022/03/30 01:58:11;;;;;;;26.98;16.55;;;281.70;1587.20;;;;;;5002329;28;20061;-81
2022/03/30 02:00:37;;;;;;;25.50;15.30;;;256.90;1587.20;;;;;;5005058;28;20022;-77
2022/03/30 02:03:02;;;;;;;;;;;256.80;1612.80;;;;;;5003718;28;20549;-81
2022/03/30 02:05:31;;;;;;;25.98;15.25;;;256.80;1612.80;;;;;;5002318;28;20373;-76
2022/03/30 02:07:57;;;;;;;26.70;14.43;;;256.80;1612.80;;;;;;5002419;28;20025;-80
2022/03/30 02:10:23;;;;;;;26.77;15.50;;;281.80;1638.40;;;;;;5003392;28;20034;-77
2022/03/30 02:12:48;;;;;;;;;;;282.30;1612.80;;;;;;5005811;28;20105;-77
2022/03/30 02:15:14;;;;;;;27.25;15.27;;;307.20;1638.40;;;;;;5003152;28;19914;-81
2022/03/30 02:17:40;;;;;;;24.05;14.30;;;307.50;1638.40;;;;;;5004957;28;20079;-78
2022/03/30 02:20:08;;;;;;;29.45;13.10;;;307.80;1664.00;;;;;;5011910;28;20030;-81
2022/03/30 02:22:34;;;;;;;22.65;12.18;;;308.10;1638.40;;;;;;5003782;28;20026;-78
2022/03/30 02:25:00;;;;;;;21.00;12.23;;;332.90;1638.40;;;;;;5005342;28;20026;-76
2022/03/30 02:27:25;;;;;;;25.65;12.48;;;333.20;1638.40;;;;;;5026601;28;20026;-77
2022/03/30 02:29:52;;;;;;;;;;;333.40;1638.40;;;;;;5005854;28;20058;-78
2022/03/30 02:32:18;;;;;;;20.63;12.70;;;333.60;1638.40;;;;;;5003431;28;19905;-77
2022/03/30 02:34:44;;;;;;;24.25;12.13;;;333.70;1612.80;;;;;;5004953;28;20037;-81
2022/03/30 02:37:11;;;;;;;23.80;11.93;;;358.40;1612.80;;;;;;5003661;28;20025;-78
2022/03/30 02:39:37;;;;;;;31.55;10.93;;;358.50;1612.80;;;;;;5001622;28;20615;-81
2022/03/30 02:42:03;;;;;;;21.35;11.88;;;358.50;1587.20;;;;;;5008214;28;20041;-81
2022/03/30 02:44:29;;;;;;;19.17;10.50;;;358.60;1587.20;;;;;;5012297;28;20026;-77
2022/03/30 02:46:55;;;;;;;19.55;10.88;;;358.60;1587.20;;;;;;5012232;28;20018;-77
2022/03/30 02:49:21;;;;;;;18.35;10.02;;;358.60;1587.20;;;;;;5009692;28;20029;-81
2022/03/30 02:51:47;;;;;;;22.05;10.80;;;358.70;1561.60;;;;;;5002147;28;20017;-77
2022/03/30 02:54:13;;;;;;;22.77;10.82;;;358.80;1561.60;;;;;;5009713;28;20417;-77
2022/03/30 02:56:38;;;;;;;19.10;11.35;;;358.80;1561.60;;;;;;5008170;28;20018;-77
2022/03/30 02:59:04;;;;;;;21.95;10.57;;;358.80;1561.60;;;;;;5002481;28;20034;-77
2022/03/30 03:01:30;;;;;;;22.15;12.20;;;358.70;1561.60;;;;;;5004373;28;20418;-77
2022/03/30 03:03:56;;;;;;;26.85;11.93;;;358.60;1561.60;;;;;;5001003;28;20023;-81
2022/03/30 03:06:21;;;;;;;27.00;12.07;;;358.50;1561.60;;;;;;5001847;28;20042;-81
2022/03/30 03:08:47;;;;;;;20.02;11.68;;;358.50;1536.00;;;;;;5002285;28;20053;-80
2022/03/30 03:11:13;;;;;;;30.00;12.30;;;358.50;1536.00;;;;;;5003642;28;20413;-77
2022/03/30 03:13:39;;;;;;;22.65;12.63;;;358.40;1536.00;;;;;;5017803;28;20022;-77
2022/03/30 03:16:05;;;;;;;36.85;16.05;;;358.40;1536.00;;;;;;5006421;28;20034;-77
2022/03/30 03:18:31;;;;;;;28.00;17.48;;;333.40;1536.00;;;;;;5006705;28;20492;-78
2022/03/30 03:20:57;;;;;;;34.50;19.35;;;308.10;1561.60;;;;;;5002965;28;20026;-77
2022/03/30 03:23:22;;;;;;;33.35;19.45;;;307.60;1587.20;;;;;;5007215;28;20482;-77
2022/03/30 03:25:48;;;;;;;37.13;19.38;;;307.40;1612.80;;;;;;5005729;28;20100;-77
2022/03/30 03:28:15;;;;;;;34.22;18.95;;;307.70;1612.80;;;;;;5012456;28;20030;-77
2022/03/30 03:30:42;;;;;;;33.53;17.95;;;307.50;1612.80;;;;;;5014179;28;20068;-77
2022/03/30 03:33:09;;;;;;;38.35;19.58;;;307.60;1612.80;;;;;;5007659;28;20031;-80
2022/03/30 03:35:35;;;;;;;42.90;21.23;;;307.20;1638.40;;;;;;5007253;28;20124;-77
2022/03/30 03:38:03;;;;;;;38.95;22.30;;;307.20;1664.00;;;;;;5009424;28;20493;-77
2022/03/30 03:40:30;;;;;;;43.70;21.25;;;282.10;1664.00;;;;;;5006122;28;20030;-77
2022/03/30 03:42:57;;;;;;;44.65;23.45;;;281.80;1689.60;;;;;;5004786;28;20022;-78
2022/03/30 03:45:22;;;;;;;45.00;23.02;;;281.60;1715.20;;;;;;5006635;28;20029;-77
2022/03/30 03:47:49;;;;;;;41.65;22.95;;;281.60;1740.80;;;;;;5005831;28;20018;-77
2022/03/30 03:50:15;;;;;;;42.67;21.58;;;281.70;1715.20;;;;;;5004651;28;20075;-79
2022/03/30 03:52:41;;;;;;;38.63;20.88;;;281.90;1689.60;;;;;;5008544;28;20088;-81
2022/03/30 03:55:08;;;;;;;37.47;19.65;;;282.10;1689.60;;;;;;5027254;28;20056;-77
2022/03/30 03:57:35;;;;;;;36.75;19.27;;;282.20;1664.00;;;;;;5006156;28;20030;-77
2022/03/30 04:00:02;;;;;;;37.05;19.33;;;282.40;1664.00;;;;;;5004575;28;20024;-77
2022/03/30 04:02:28;;;;;;;37.50;21.13;;;282.40;1664.00;;;;;;5005021;28;20018;-78
2022/03/30 04:04:53;;;;;;;38.50;20.27;;;307.30;1664.00;;;;;;5006108;28;20471;-77
2022/03/30 04:07:19;;;;;;;41.63;21.35;;;307.50;1638.40;;;;;;5004171;28;20093;-77
2022/03/30 04:09:45;;;;;;;;;;;307.60;1638.40;;;;;;5006590;28;20030;-78
2022/03/30 04:12:11;;;;;;;39.33;20.98;;;307.70;1638.40;;;;;;5006288;28;19906;-78
2022/03/30 04:14:36;;;;;;;;;;;307.60;1638.40;;;;;;5004507;28;20081;-77
2022/03/30 04:17:02;;;;;;;47.20;21.40;;;307.60;1638.40;;;;;;5006742;28;20000;-77
2022/03/30 04:19:28;;;;;;;;;;;307.40;1638.40;;;;;;5005295;28;20458;-77
2022/03/30 04:21:53;;;;;;;44.88;22.35;;;307.40;1638.40;;;;;;5004361;28;19906;-78
2022/03/30 04:24:19;;;;;;;;;;;307.50;1638.40;;;;;;5006603;28;20057;-79
2022/03/30 04:26:45;;;;;;;53.97;23.55;;;307.60;1638.40;;;;;;5004789;28;19912;-77
2022/03/30 04:29:10;;;;;;;;;;;307.60;1638.40;;;;;;5005340;28;20477;-77
2022/03/30 04:31:36;;;;;;;41.75;22.55;;;307.60;1638.40;;;;;;5005608;28;19913;-77
2022/03/30 04:34:01;;;;;;;;;;;307.60;1638.40;;;;;;5004111;28;20479;-77
2022/03/30 04:36:27;;;;;;;44.83;22.02;;;307.60;1638.40;;;;;;5005216;28;19909;-80
2022/03/30 04:38:53;;;;;;;;;;;307.60;1638.40;;;;;;5006718;28;20026;-81
2022/03/30 04:41:19;;;;;;;39.83;21.05;;;307.60;1638.40;;;;;;5003923;28;19906;-77
2022/03/30 04:43:45;;;;;;;40.85;22.45;;;307.70;1664.00;;;;;;5005297;28;20382;-77
2022/03/30 04:46:12;;;;;;;;;;;307.70;1664.00;;;;;;5004880;28;20386;-77
2022/03/30 04:48:38;;;;;;;27.45;15.80;;;307.70;1638.40;;;;;;5003725;28;19916;-78
2022/03/30 04:51:04;;;;;;;36.53;20.42;;;307.80;1638.40;;;;;;5006529;28;20030;-77
2022/03/30 04:53:29;;;;;;;;;;;307.80;1638.40;;;;;;5004799;28;20101;-78
2022/03/30 04:55:55;;;;;;;38.42;17.77;;;307.90;1664.00;;;;;;5001482;28;19914;-78
2022/03/30 04:58:22;;;;;;;44.40;20.98;;;307.90;1664.00;;;;;;5005213;28;20022;-76
2022/03/30 05:00:48;;;;;;;35.33;19.75;;;308.00;1664.00;;;;;;5003971;28;20036;-80
2022/03/30 05:03:14;;;;;;;37.92;19.02;;;307.90;1664.00;;;;;;5004357;28;20018;-77
2022/03/30 05:05:40;;;;;;;40.08;19.02;;;308.00;1664.00;;;;;;5004325;28;20478;-77
2022/03/30 05:08:06;;;;;;;30.65;18.33;;;308.00;1664.00;;;;;;5004681;28;20101;-76
2022/03/30 05:10:32;;;;;;;35.60;17.95;;;308.10;1664.00;;;;;;5007127;28;20023;-80
2022/03/30 05:12:59;;;;;;;36.55;18.17;;;308.10;1664.00;;;;;;5004453;28;20053;-75
2022/03/30 05:15:28;;;;;;;36.92;18.60;;;308.10;1689.60;;;;;;5004087;28;20430;-76
2022/03/30 05:17:54;;;;;;;35.58;17.98;;;332.90;1689.60;;;;;;5003699;28;20024;-76
2022/03/30 05:20:21;;;;;;;30.48;17.17;;;332.90;1689.60;;;;;;5004735;28;20027;-76
2022/03/30 05:22:47;;;;;;;34.15;19.35;;;332.90;1689.60;;;;;;5003340;28;20030;-78
2022/03/30 05:25:15;;;;;;;38.35;18.83;;;333.00;1689.60;;;;;;5003493;28;20026;-77
2022/03/30 05:27:42;;;;;;;35.80;20.33;;;332.90;1715.20;;;;;;5009199;28;21585;-77
2022/03/30 05:30:09;;;;;;;39.38;22.80;;;332.90;1715.20;;;;;;5008308;28;20034;-77
2022/03/30 05:32:35;;;;;;;44.05;24.65;;;332.90;1715.20;;;;;;5003782;28;20475;-76
2022/03/30 05:35:03;;;;;;;41.67;23.13;;;332.80;1715.20;;;;;;5002182;28;20061;-77
2022/03/30 05:37:30;;;;;;;40.97;22.85;;;333.00;1689.60;;;;;;5004537;28;20437;-77
2022/03/30 05:39:56;;;;;;;48.80;23.00;;;333.00;1689.60;;;;;;5004774;28;20022;-83
2022/03/30 05:42:22;;;;;;;42.28;24.42;;;333.00;1689.60;;;;;;5002313;28;20118;-77
2022/03/30 05:44:51;;;;;;;36.15;22.58;;;332.90;1715.20;;;;;;5005273;28;20018;-78
2022/03/30 05:47:17;;;;;;;48.75;25.02;;;333.00;1689.60;;;;;;5003381;28;20452;-77
2022/03/30 05:49:43;;;;;;;43.03;24.30;;;333.10;1689.60;;;;;;5004564;28;20109;-80
2022/03/30 05:52:09;;;;;;;;;;;333.00;1715.20;;;;;;5002700;28;20033;-80
2022/03/30 05:54:35;;;;;;;50.13;26.85;;;332.90;1740.80;;;;;;5003578;28;19917;-79
2022/03/30 05:57:01;;;;;;;45.58;25.05;;;332.90;1766.40;;;;;;5003972;28;20025;-77
2022/03/30 05:59:34;;;;;;;49.53;25.30;;;332.80;1766.40;;;;;;5002906;28;20018;-79
2022/03/30 06:02:01;;;;;;;44.13;25.30;;;332.90;1766.40;;;;;;5005078;28;20019;-76
2022/03/30 06:04:28;;;;;;;45.50;23.80;;;332.90;1792.00;;;;;;5001662;28;20018;-80
2022/03/30 06:06:54;;;;;;;45.60;22.95;;;333.00;1766.40;;;;;;5005055;28;20022;-80
2022/03/30 06:09:20;;;;;;;44.00;22.48;;;333.10;1766.40;;;;;;5004763;28;20025;-77
2022/03/30 06:11:47;;;;;;;46.83;23.40;;;333.10;1792.00;;;;;;5003074;28;20025;-76
2022/03/30 06:14:16;;;;;;;39.78;23.30;;;333.20;1792.00;;;;;;5001279;28;20025;-79
2022/03/30 06:16:43;;;;;;;43.53;23.38;;;333.20;1792.00;;;;;;5001314;28;20389;-78
2022/03/30 06:19:13;;;;;;;48.65;24.25;;;333.40;1766.40;;;;;;5002380;28;20014;-80
2022/03/30 06:21:41;;;;;;;35.50;22.13;;;333.50;1740.80;;;;;;5002493;28;20033;-79
2022/03/30 06:24:12;;;;;;;42.83;21.65;;;333.70;1740.80;;;;;;5004157;28;20095;-79
2022/03/30 06:26:43;;;;;;;36.40;20.75;;;333.70;1740.80;;;;;;5019370;28;20065;-78
2022/03/30 06:29:08;;;;;;;44.80;20.23;;;358.50;1715.20;;;;;;4996817;28;20085;-78
2022/03/30 06:31:34;;;;;;;39.50;18.90;;;358.60;1715.20;;;;;;4994822;28;20022;-81
2022/03/30 06:34:02;;;;;;;34.10;19.50;;;358.70;1715.20;;;;;;4993477;28;20061;-82
2022/03/30 06:36:28;;;;;;;36.22;17.00;;;358.80;1689.60;;;;;;4993670;28;20037;-80
2022/03/30 06:38:55;;;;;;;48.78;18.63;;;358.80;1715.20;;;;;;4994783;28;20018;-81
2022/03/30 06:41:22;;;;;;;38.60;16.88;;;359.00;1664.00;;;;;;4995030;28;20101;-82
2022/03/30 06:43:47;;;;;;;53.80;17.63;;;359.00;1638.40;;;;;;4993700;28;20106;-79
2022/03/30 06:46:14;;;;;;;34.92;15.57;;;359.00;1664.00;;;;;;4993451;28;20026;-82
2022/03/30 06:48:40;;;;;;;38.45;15.40;;;359.20;1664.00;;;;;;4993751;28;20032;-80
2022/03/30 06:51:06;;;;;;;50.92;16.27;;;359.30;1638.40;;;;;;4994760;28;20026;-81
2022/03/30 06:53:32;;;;;;;29.40;13.80;;;384.00;1638.40;;;;;;4993221;28;20089;-79
2022/03/30 06:55:58;;;;;;;38.90;15.27;;;359.30;1664.00;;;;;;4997818;28;20445;-79
2022/03/30 06:58:24;;;;;;;42.55;16.65;;;384.00;1664.00;;;;;;5002731;28;20018;-78
2022/03/30 07:00:51;;;;;;;32.92;14.93;;;384.00;1664.00;;;;;;5001126;28;20497;-78
2022/03/30 07:03:16;;;;;;;32.80;15.85;;;384.20;1638.40;;;;;;5002314;28;20031;-76
2022/03/30 07:05:42;;;;;;;31.40;15.93;;;384.40;1612.80;;;;;;5012460;28;20405;-78
2022/03/30 07:10:52;;;;;;;32.08;14.70;;;384.60;1587.20;;;;;;5013762;28;20048;-79
2022/03/30 07:13:19;;;;;;;33.75;13.32;;;384.60;1561.60;;;;;;5012597;28;20474;-77
2022/03/30 07:15:45;;;;;;;31.30;12.73;;;384.70;1561.60;;;;;;5012334;28;20042;-78
2022/03/30 07:18:13;;;;;;;31.10;13.32;;;384.70;1536.00;;;;;;5012536;28;20060;-80
2022/03/30 07:20:39;;;;;;;46.45;22.00;;;384.70;1536.00;;;;;;5012356;28;20026;-78
2022/03/30 07:23:05;;;;;;;39.08;13.90;;;384.80;1561.60;;;;;;5012231;28;20030;-78
2022/03/30 07:25:31;;;;;;;44.85;14.13;;;384.90;1536.00;;;;;;5012446;28;20064;-78
2022/03/30 07:27:59;;;;;;;34.03;13.73;;;384.90;1536.00;;;;;;5012366;28;20109;-81
2022/03/30 07:30:26;;;;;;;26.90;12.88;;;409.60;1587.20;;;;;;5012273;28;20026;-79
2022/03/30 07:32:53;;;;;;;31.55;13.05;;;409.70;1561.60;;;;;;5013585;28;20018;-81
2022/03/30 07:35:22;;;;;;;32.65;12.15;;;409.80;1536.00;;;;;;5012083;28;20547;-78
2022/03/30 07:37:48;;;;;;;23.85;10.27;;;409.90;1536.00;;;;;;5013517;28;20440;-78
2022/03/30 07:40:17;;;;;;;29.27;10.60;;;410.00;1536.00;;;;;;5012214;28;20072;-79
2022/03/30 07:42:44;;;;;;;31.70;12.15;;;410.20;1510.40;;;;;;5012212;28;20033;-78
2022/03/30 07:45:10;;;;;;;33.60;11.20;;;410.30;1484.80;;;;;;5013033;28;20081;-78
2022/03/30 07:47:36;;;;;;;35.80;12.02;;;410.40;1459.20;;;;;;5009058;28;20038;-80
2022/03/30 07:50:04;;;;;;;24.05;10.40;;;410.40;1433.60;;;;;;5012330;28;20022;-77
2022/03/30 07:52:30;;;;;;;29.83;11.48;;;410.50;1433.60;;;;;;5011956;28;20080;-76
2022/03/30 07:54:56;;;;;;;31.98;10.57;;;410.50;1433.60;;;;;;5013187;28;20049;-80
2022/03/30 07:57:26;;;;;;;32.75;10.88;;;435.20;1459.20;;;;;;5012227;28;20026;-77
2022/03/30 07:59:57;;;;;;;26.08;9.98;;;435.30;1459.20;;;;;;5013300;28;20056;-77
2022/03/30 08:02:24;;;;;;;36.35;11.13;;;435.30;1433.60;;;;;;5012044;28;20025;-80
2022/03/30 08:04:50;;;;;;;35.00;12.35;;;435.30;1433.60;;;;;;5011915;28;20026;-79
2022/03/30 08:07:16;;;;;;;34.45;11.02;;;435.40;1408.00;;;;;;5014273;28;20022;-79
2022/03/30 08:09:42;;;;;;;27.10;10.88;;;435.50;1408.00;;;;;;5016203;28;20100;-79
2022/03/30 08:12:10;;;;;;;31.40;11.30;;;435.50;1433.60;;;;;;5015716;28;20113;-76
2022/03/30 08:14:36;;;;;;;27.92;10.90;;;435.60;1433.60;;;;;;5009532;28;20034;-78
2022/03/30 08:17:02;;;;;;;27.50;11.75;;;435.70;1433.60;;;;;;5006296;28;20394;-77
2022/03/30 08:19:28;;;;;;;36.22;11.27;;;435.70;1433.60;;;;;;5006155;28;20045;-80
2022/03/30 08:24:46;;;;;;;26.00;9.85;;;435.70;1408.00;;;;;;5016636;28;20049;-77
2022/03/30 08:27:18;;;;;;;29.20;10.23;;;435.80;1382.40;;;;;;5016617;28;20026;-80
2022/03/30 08:29:44;;;;;;;38.60;9.95;;;435.80;1408.00;;;;;;5016622;28;20053;-77
2022/03/30 08:32:15;;;;;;;28.05;9.00;;;435.80;1382.40;;;;;;5015180;28;20076;-76
2022/03/30 08:34:42;;;;;;;34.67;11.57;;;435.90;1382.40;;;;;;5016561;28;20140;-79
2022/03/30 08:37:08;;;;;;;26.77;9.43;;;435.90;1382.40;;;;;;5015058;28;20029;-80
2022/03/30 08:39:35;;;;;;;21.23;10.32;;;435.90;1382.40;;;;;;5007490;28;20379;-77
2022/03/30 08:42:05;;;;;;;28.02;10.02;;;435.90;1356.80;;;;;;5005229;28;20041;-81
2022/03/30 08:44:32;;;;;;;33.58;12.73;;;435.90;1382.40;;;;;;5009757;28;20030;-78
2022/03/30 08:46:58;;;;;;;25.42;10.18;;;436.00;1382.40;;;;;;5006998;28;20406;-78
2022/03/30 08:49:26;;;;;;;27.00;10.32;;;435.80;1382.40;;;;;;5005184;28;20027;-78
2022/03/30 08:51:53;;;;;;;28.65;10.52;;;436.00;1356.80;;;;;;5003264;28;20026;-78
2022/03/30 08:54:19;;;;;;;35.70;11.23;;;436.10;1382.40;;;;;;5004853;28;20053;-80
2022/03/30 08:56:46;;;;;;;24.05;10.98;;;436.10;1382.40;;;;;;5003862;28;20396;-76
2022/03/30 08:59:20;;;;;;;36.60;10.95;;;436.10;1356.80;;;;;;4998562;28;20089;-77
2022/03/30 09:01:46;;;;;;;25.40;10.57;;;436.10;1382.40;;;;;;5012288;28;20057;-77
2022/03/30 09:04:15;;;;;;;24.65;9.95;;;460.80;1408.00;;;;;;5014006;28;20028;-79
2022/03/30 09:06:45;;;;;;;39.40;11.85;;;460.90;1408.00;;;;;;5014047;28;20036;-77
2022/03/30 09:09:11;;;;;;;26.27;9.85;;;460.90;1382.40;;;;;;5014329;28;20108;-77
2022/03/30 09:11:53;;;;;;;29.98;10.90;;;461.10;1382.40;;;;;;5014576;28;20459;-79
2022/03/30 09:14:21;;;;;;;26.45;10.25;;;461.20;1382.40;;;;;;5015534;28;20032;-75
2022/03/30 09:16:49;;;;;;;33.35;10.50;;;461.20;1382.40;;;;;;5014528;28;20021;-75
2022/03/30 09:19:17;;;;;;;28.08;10.57;;;461.20;1331.20;;;;;;5004170;28;20022;-75
2022/03/30 09:21:49;;;;;;;34.88;13.23;;;461.30;1331.20;;;;;;5003623;28;20026;-75
2022/03/30 09:24:20;;;;;;;34.40;12.35;;;461.20;1356.80;;;;;;5006811;28;20109;-78
2022/03/30 09:26:48;;;;;;;31.77;11.40;;;461.30;1356.80;;;;;;5009207;28;20021;-78
2022/03/30 09:29:14;;;;;;;26.92;10.27;;;461.40;1356.80;;;;;;5015159;28;20026;-78
2022/03/30 09:31:41;;;;;;;29.83;9.85;;;461.40;1356.80;;;;;;5015396;28;20057;-78
2022/03/30 09:34:09;;;;;;;23.17;9.77;;;461.40;1356.80;;;;;;5013711;28;20045;-77
2022/03/30 09:36:42;;;;;;;34.83;11.73;;;461.50;1331.20;;;;;;5014859;28;20029;-79
2022/03/30 09:39:28;;;;;;;25.73;10.25;;;461.50;1331.20;;;;;;5013814;28;20076;-78
2022/03/30 09:41:55;;;;;;;33.47;9.03;;;461.60;1356.80;;;;;;5014922;28;20037;-78
2022/03/30 09:44:22;;;;;;;30.40;9.15;;;461.60;1331.20;;;;;;5015090;28;20262;-77
2022/03/30 09:47:03;;;;;;;26.33;9.25;;;461.60;1331.20;;;;;;5014787;28;20026;-75
2022/03/30 09:49:41;;;;;;;24.73;9.18;;;461.60;1331.20;;;;;;5015033;28;20049;-76
2022/03/30 09:52:10;;;;;;;27.02;9.05;;;461.70;1331.20;;;;;;5014417;28;20033;-75
2022/03/30 09:54:49;;;;;;;25.15;9.25;;;461.70;1331.20;;;;;;5014753;28;20045;-79
2022/03/30 09:57:35;;;;;;;21.65;8.00;;;486.40;1331.20;;;;;;5013537;28;20422;-78
2022/03/30 10:00:12;;;;;;;27.90;8.77;;;486.40;1305.60;;;;;;5007498;28;20038;-78
2022/03/30 10:02:51;;;;;;;19.60;7.82;;;486.40;1305.60;;;;;;5013313;28;20140;-77
2022/03/30 10:05:21;;;;;;;22.67;7.88;;;486.40;1305.60;;;;;;5013386;28;20030;-77
2022/03/30 10:07:48;;;;;;;22.30;9.20;;;486.50;1280.00;;;;;;5013395;28;20037;-79
2022/03/30 10:10:21;;;;;;;25.77;8.07;;;486.50;1305.60;;;;;;5014493;28;20030;-75
2022/03/30 10:12:47;;;;;;;24.77;8.48;;;486.50;1280.00;;;;;;5014414;28;20022;-75
2022/03/30 10:15:13;;;;;;;20.88;6.97;;;486.60;1280.00;;;;;;5014307;28;20113;-76
2022/03/30 10:17:39;;;;;;;25.92;9.27;;;486.50;1280.00;;;;;;5013240;28;20042;-77
2022/03/30 10:20:07;;;;;;;20.13;8.52;;;486.60;1280.00;;;;;;5014266;28;20106;-76
2022/03/30 10:23:07;;;;;;;20.65;7.00;;;486.60;1280.00;;;;;;5013946;28;20034;-79
2022/03/30 10:25:51;;;;;;;28.77;7.43;;;486.60;1280.00;;;;;;5014151;28;20018;-77
2022/03/30 10:28:31;;;;;;;22.58;7.97;;;486.60;1254.40;;;;;;5014145;28;20478;-75
2022/03/30 10:30:58;;;;;;;16.55;8.10;;;486.60;1254.40;;;;;;5012470;28;20072;-77
2022/03/30 10:33:40;;;;;;;27.90;9.13;;;486.70;1280.00;;;;;;5014155;28;20021;-77
2022/03/30 10:36:24;;;;;;;36.38;10.63;;;486.70;1280.00;;;;;;5014027;28;20505;-75
2022/03/30 10:39:27;;;;;;;31.92;9.63;;;486.70;1280.00;;;;;;5013863;28;20022;-77
2022/03/30 10:42:04;;;;;;;22.23;8.88;;;486.70;1280.00;;;;;;4972957;28;20043;-77
2022/03/30 10:44:49;;;;;;;25.58;9.98;;;486.80;1254.40;;;;;;4972935;28;20027;-74
2022/03/30 10:47:16;;;;;;;29.77;8.27;;;486.80;1280.00;;;;;;4972918;28;20061;-75
2022/03/30 10:49:42;;;;;;;31.33;9.88;;;486.80;1254.40;;;;;;4972306;28;20109;-75
2022/03/30 10:52:38;;;;;;;26.92;8.25;;;486.80;1254.40;;;;;;4961203;28;20447;-74
2022/03/30 10:55:12;;;;;;;28.13;9.02;;;486.80;1254.40;;;;;;4960462;28;20085;-75
2022/03/30 10:57:52;;;;;;;24.80;8.30;;;486.80;1254.40;;;;;;4963201;28;20035;-75
2022/03/30 11:00:26;;;;;;;24.75;8.32;;;486.80;1254.40;;;;;;4963495;28;20126;-75
2022/03/30 11:03:05;;;;;;;38.35;9.27;;;486.80;1254.40;;;;;;4970522;28;20539;-76
2022/03/30 11:05:31;;;;;;;28.85;9.60;;;486.90;1254.40;;;;;;4971849;28;20527;-75
2022/03/30 11:07:57;;;;;;;28.83;7.97;;;487.00;1280.00;;;;;;4964285;28;20159;-74
2022/03/30 11:10:29;;;;;;;27.25;7.60;;;487.10;1254.40;;;;;;4954848;28;20031;-75
2022/03/30 11:13:11;;;;;;;25.35;8.90;;;487.20;1228.80;;;;;;4971549;28;20102;-76
2022/03/30 11:15:59;;;;;;;22.63;9.38;;;487.20;1228.80;;;;;;4960710;28;20035;-77
2022/03/30 11:18:26;;;;;;;30.42;8.10;;;487.30;1228.80;;;;;;4978205;28;20034;-78
2022/03/30 11:21:14;;;;;;;20.92;9.13;;;487.30;1228.80;;;;;;4994162;28;20097;-84
2022/03/30 11:24:02;;;;;;;36.95;9.40;;;512.00;1228.80;;;;;;4993646;28;20031;-79
2022/03/30 11:26:49;;;;;;;28.33;7.53;;;512.10;1228.80;;;;;;4993854;28;20026;-77
2022/03/30 11:29:33;;;;;;;;;;;512.00;1228.80;;;;;;4993038;28;20056;-77
2022/03/30 11:31:59;;;;;;;25.33;8.13;;;512.10;1228.80;;;;;;4992684;28;19906;-79
2022/03/30 11:34:34;;;;;;;23.60;8.00;;;512.10;1228.80;;;;;;4993646;28;20390;-77
2022/03/30 11:37:01;;;;;;;40.63;9.80;;;512.10;1203.20;;;;;;4992390;28;20026;-78
2022/03/30 11:39:33;;;;;;;17.52;8.15;;;512.20;1228.80;;;;;;4997614;28;20125;-76
2022/03/30 11:42:02;;;;;;;21.60;8.35;;;512.30;1203.20;;;;;;5004053;28;20084;-77
2022/03/30 11:47:19;;;;;;;32.75;8.45;;;512.40;1228.80;;;;;;5006134;28;20481;-78
2022/03/30 11:49:52;;;;;;;28.45;9.13;;;512.60;1228.80;;;;;;5006095;28;20484;-77
2022/03/30 11:52:19;;;;;;;20.05;7.30;;;512.80;1177.60;;;;;;5004251;28;20462;-78
2022/03/30 11:54:47;;;;;;;24.33;7.60;;;512.70;1203.20;;;;;;4997218;28;20053;-78
2022/03/30 11:57:14;;;;;;;32.15;8.07;;;512.60;1203.20;;;;;;4996045;28;20023;-77
2022/03/30 11:59:40;;;;;;;25.45;9.25;;;512.80;1152.00;;;;;;4996101;28;20457;-76
2022/03/30 12:02:07;;;;;;;22.92;8.73;;;512.80;1152.00;;;;;;4997320;28;20098;-77
2022/03/30 12:04:34;;;;;;;25.05;7.38;;;512.90;1152.00;;;;;;4996507;28;20038;-77
2022/03/30 12:07:00;;;;;;;23.15;8.63;;;537.60;1152.00;;;;;;4997224;28;20019;-77
2022/03/30 12:09:26;;;;;;;21.63;8.10;;;537.70;1152.00;;;;;;4997329;28;20030;-77
2022/03/30 12:11:52;;;;;;;26.02;9.02;;;537.90;1126.40;;;;;;4996041;28;20049;-76
2022/03/30 12:14:25;;;;;;;17.70;6.60;;;538.00;1152.00;;;;;;4997017;28;20476;-78
2022/03/30 12:16:51;;;;;;;32.80;8.30;;;538.10;1100.80;;;;;;4996268;28;20120;-76
2022/03/30 12:19:17;;;;;;;25.20;9.40;;;538.20;1100.80;;;;;;4997112;28;20033;-79
2022/03/30 12:21:42;;;;;;;22.83;8.07;;;538.30;1126.40;;;;;;4995890;28;20441;-77